sensor_id;sensor_type;location;lat;lon;timestamp;P1;durP1;ratioP1;P2;durP2;ratioP2
27939;SDS011;15275;51.716;14.324;2022-08-19T00:01:29;12.88;;;10.48;;
27939;SDS011;15275;51.716;14.324;2022-08-19T00:03:57;12.10;;;10.40;;
27939;SDS011;15275;51.716;14.324;2022-08-19T00:06:25;12.15;;;10.57;;
27939;SDS011;15275;51.716;14.324;2022-08-19T00:08:53;12.75;;;10.32;;
27939;SDS011;15275;51.716;14.324;2022-08-19T00:11:20;12.00;;;10.75;;
27939;SDS011;15275;51.716;14.324;2022-08-19T00:13:46;11.85;;;10.43;;
27939;SDS011;15275;51.716;14.324;2022-08-19T00:16:15;11.48;;;10.35;;
27939;SDS011;15275;51.716;14.324;2022-08-19T00:18:46;13.43;;;10.27;;
27939;SDS011;15275;51.716;14.324;2022-08-19T00:21:13;11.70;;;10.57;;
27939;SDS011;15275;51.716;14.324;2022-08-19T00:23:40;10.93;;;9.82;;
27939;SDS011;15275;51.716;14.324;2022-08-19T00:26:08;11.40;;;9.25;;
27939;SDS011;15275;51.716;14.324;2022-08-19T00:28:35;13.55;;;11.00;;
27939;SDS011;15275;51.716;14.324;2022-08-19T00:31:06;13.27;;;11.80;;
27939;SDS011;15275;51.716;14.324;2022-08-19T00:33:33;12.73;;;10.77;;
27939;SDS011;15275;51.716;14.324;2022-08-19T00:36:04;12.32;;;10.63;;
27939;SDS011;15275;51.716;14.324;2022-08-19T00:38:33;11.40;;;10.30;;
27939;SDS011;15275;51.716;14.324;2022-08-19T00:41:01;13.23;;;11.52;;
27939;SDS011;15275;51.716;14.324;2022-08-19T00:43:27;14.13;;;12.68;;
27939;SDS011;15275;51.716;14.324;2022-08-19T00:45:53;15.30;;;12.35;;
27939;SDS011;15275;51.716;14.324;2022-08-19T00:48:20;13.80;;;11.68;;
27939;SDS011;15275;51.716;14.324;2022-08-19T00:50:47;13.77;;;12.38;;
27939;SDS011;15275;51.716;14.324;2022-08-19T00:53:16;14.00;;;12.38;;
27939;SDS011;15275;51.716;14.324;2022-08-19T00:55:48;16.08;;;12.38;;
27939;SDS011;15275;51.716;14.324;2022-08-19T00:58:17;15.13;;;12.55;;
27939;SDS011;15275;51.716;14.324;2022-08-19T01:00:46;15.00;;;12.82;;
27939;SDS011;15275;51.716;14.324;2022-08-19T01:03:14;12.55;;;11.23;;
27939;SDS011;15275;51.716;14.324;2022-08-19T01:05:44;14.65;;;13.02;;
27939;SDS011;15275;51.716;14.324;2022-08-19T01:08:13;14.02;;;12.63;;
27939;SDS011;15275;51.716;14.324;2022-08-19T01:10:42;16.60;;;13.18;;
27939;SDS011;15275;51.716;14.324;2022-08-19T01:13:16;15.43;;;13.90;;
27939;SDS011;15275;51.716;14.324;2022-08-19T01:15:50;15.25;;;13.52;;
27939;SDS011;15275;51.716;14.324;2022-08-19T01:18:20;14.80;;;12.70;;
27939;SDS011;15275;51.716;14.324;2022-08-19T01:20:47;15.35;;;13.00;;
27939;SDS011;15275;51.716;14.324;2022-08-19T01:23:13;14.20;;;12.63;;
27939;SDS011;15275;51.716;14.324;2022-08-19T01:25:42;16.60;;;11.95;;
27939;SDS011;15275;51.716;14.324;2022-08-19T01:28:30;14.00;;;11.50;;
27939;SDS011;15275;51.716;14.324;2022-08-19T01:30:56;13.68;;;12.35;;
27939;SDS011;15275;51.716;14.324;2022-08-19T01:33:22;15.43;;;12.18;;
27939;SDS011;15275;51.716;14.324;2022-08-19T01:35:48;15.02;;;13.43;;
27939;SDS011;15275;51.716;14.324;2022-08-19T01:38:24;17.48;;;13.43;;
27939;SDS011;15275;51.716;14.324;2022-08-19T01:40:53;16.90;;;12.70;;
27939;SDS011;15275;51.716;14.324;2022-08-19T01:43:19;14.10;;;12.65;;
27939;SDS011;15275;51.716;14.324;2022-08-19T01:45:45;15.75;;;13.90;;
27939;SDS011;15275;51.716;14.324;2022-08-19T01:48:11;15.85;;;13.07;;
27939;SDS011;15275;51.716;14.324;2022-08-19T01:50:39;15.25;;;12.77;;
27939;SDS011;15275;51.716;14.324;2022-08-19T01:53:06;14.35;;;12.95;;
27939;SDS011;15275;51.716;14.324;2022-08-19T01:55:38;15.27;;;13.68;;
27939;SDS011;15275;51.716;14.324;2022-08-19T01:58:08;17.58;;;13.15;;
27939;SDS011;15275;51.716;14.324;2022-08-19T02:00:40;14.38;;;12.88;;
27939;SDS011;15275;51.716;14.324;2022-08-19T02:03:07;15.57;;;12.65;;
27939;SDS011;15275;51.716;14.324;2022-08-19T02:05:34;14.80;;;13.23;;
27939;SDS011;15275;51.716;14.324;2022-08-19T02:08:00;15.75;;;11.88;;
27939;SDS011;15275;51.716;14.324;2022-08-19T02:10:26;16.80;;;13.38;;
27939;SDS011;15275;51.716;14.324;2022-08-19T02:12:51;14.95;;;12.73;;
27939;SDS011;15275;51.716;14.324;2022-08-19T02:15:18;15.65;;;13.05;;
27939;SDS011;15275;51.716;14.324;2022-08-19T02:17:45;12.45;;;11.18;;
27939;SDS011;15275;51.716;14.324;2022-08-19T02:20:12;16.13;;;13.07;;
27939;SDS011;15275;51.716;14.324;2022-08-19T02:22:39;14.60;;;13.00;;
27939;SDS011;15275;51.716;14.324;2022-08-19T02:25:07;18.23;;;13.30;;
27939;SDS011;15275;51.716;14.324;2022-08-19T02:27:35;14.60;;;13.23;;
27939;SDS011;15275;51.716;14.324;2022-08-19T02:30:03;13.25;;;11.95;;
27939;SDS011;15275;51.716;14.324;2022-08-19T02:32:31;12.75;;;11.48;;
27939;SDS011;15275;51.716;14.324;2022-08-19T02:34:58;12.77;;;11.57;;
27939;SDS011;15275;51.716;14.324;2022-08-19T02:37:24;15.02;;;13.38;;
27939;SDS011;15275;51.716;14.324;2022-08-19T02:40:08;14.73;;;11.82;;
27939;SDS011;15275;51.716;14.324;2022-08-19T02:42:35;14.68;;;12.95;;
27939;SDS011;15275;51.716;14.324;2022-08-19T02:45:01;14.32;;;12.90;;
27939;SDS011;15275;51.716;14.324;2022-08-19T02:47:27;18.38;;;13.90;;
27939;SDS011;15275;51.716;14.324;2022-08-19T02:49:53;16.02;;;12.90;;
27939;SDS011;15275;51.716;14.324;2022-08-19T02:52:19;14.80;;;13.05;;
27939;SDS011;15275;51.716;14.324;2022-08-19T02:54:45;14.23;;;12.07;;
27939;SDS011;15275;51.716;14.324;2022-08-19T02:57:11;13.98;;;12.63;;
27939;SDS011;15275;51.716;14.324;2022-08-19T02:59:36;14.45;;;12.38;;
27939;SDS011;15275;51.716;14.324;2022-08-19T03:02:02;13.55;;;12.05;;
27939;SDS011;15275;51.716;14.324;2022-08-19T03:04:28;14.80;;;12.23;;
27939;SDS011;15275;51.716;14.324;2022-08-19T03:06:54;14.00;;;12.63;;
27939;SDS011;15275;51.716;14.324;2022-08-19T03:09:20;14.05;;;11.70;;
27939;SDS011;15275;51.716;14.324;2022-08-19T03:11:46;14.20;;;12.75;;
27939;SDS011;15275;51.716;14.324;2022-08-19T03:14:13;15.70;;;11.93;;
27939;SDS011;15275;51.716;14.324;2022-08-19T03:16:43;13.90;;;12.30;;
27939;SDS011;15275;51.716;14.324;2022-08-19T03:19:13;15.13;;;13.07;;
27939;SDS011;15275;51.716;14.324;2022-08-19T03:21:42;13.30;;;12.00;;
27939;SDS011;15275;51.716;14.324;2022-08-19T03:24:12;15.23;;;12.63;;
27939;SDS011;15275;51.716;14.324;2022-08-19T03:26:40;15.43;;;12.85;;
27939;SDS011;15275;51.716;14.324;2022-08-19T03:29:11;15.75;;;12.23;;
27939;SDS011;15275;51.716;14.324;2022-08-19T03:31:38;14.27;;;12.38;;
27939;SDS011;15275;51.716;14.324;2022-08-19T03:34:06;14.40;;;12.52;;
27939;SDS011;15275;51.716;14.324;2022-08-19T03:36:32;15.25;;;12.98;;
27939;SDS011;15275;51.716;14.324;2022-08-19T03:38:59;14.85;;;13.35;;
27939;SDS011;15275;51.716;14.324;2022-08-19T03:41:30;15.55;;;12.73;;
27939;SDS011;15275;51.716;14.324;2022-08-19T03:44:02;13.40;;;12.00;;
27939;SDS011;15275;51.716;14.324;2022-08-19T03:46:31;16.25;;;12.82;;
27939;SDS011;15275;51.716;14.324;2022-08-19T03:48:59;13.20;;;11.68;;
27939;SDS011;15275;51.716;14.324;2022-08-19T03:51:37;11.88;;;10.68;;
27939;SDS011;15275;51.716;14.324;2022-08-19T03:54:05;14.13;;;12.25;;
27939;SDS011;15275;51.716;14.324;2022-08-19T03:56:34;13.48;;;12.15;;
27939;SDS011;15275;51.716;14.324;2022-08-19T03:59:02;14.68;;;12.98;;
27939;SDS011;15275;51.716;14.324;2022-08-19T04:01:30;13.55;;;11.93;;
27939;SDS011;15275;51.716;14.324;2022-08-19T04:03:57;16.98;;;13.27;;
27939;SDS011;15275;51.716;14.324;2022-08-19T04:06:28;16.38;;;13.75;;
27939;SDS011;15275;51.716;14.324;2022-08-19T04:08:57;14.05;;;12.32;;
27939;SDS011;15275;51.716;14.324;2022-08-19T04:11:30;16.05;;;14.00;;
27939;SDS011;15275;51.716;14.324;2022-08-19T04:14:01;14.90;;;12.77;;
27939;SDS011;15275;51.716;14.324;2022-08-19T04:16:28;14.90;;;11.95;;
27939;SDS011;15275;51.716;14.324;2022-08-19T04:18:55;13.63;;;12.23;;
27939;SDS011;15275;51.716;14.324;2022-08-19T04:21:26;14.57;;;11.77;;
27939;SDS011;15275;51.716;14.324;2022-08-19T04:23:54;12.82;;;11.48;;
27939;SDS011;15275;51.716;14.324;2022-08-19T04:26:22;14.00;;;12.55;;
27939;SDS011;15275;51.716;14.324;2022-08-19T04:28:53;17.40;;;13.27;;
27939;SDS011;15275;51.716;14.324;2022-08-19T04:31:24;16.75;;;12.95;;
27939;SDS011;15275;51.716;14.324;2022-08-19T04:33:53;15.15;;;12.55;;
27939;SDS011;15275;51.716;14.324;2022-08-19T04:36:23;12.35;;;11.13;;
27939;SDS011;15275;51.716;14.324;2022-08-19T04:38:59;13.35;;;12.05;;
27939;SDS011;15275;51.716;14.324;2022-08-19T04:41:29;15.02;;;12.65;;
27939;SDS011;15275;51.716;14.324;2022-08-19T04:44:14;18.38;;;13.52;;
27939;SDS011;15275;51.716;14.324;2022-08-19T04:46:43;14.52;;;12.85;;
27939;SDS011;15275;51.716;14.324;2022-08-19T04:49:13;14.68;;;13.18;;
27939;SDS011;15275;51.716;14.324;2022-08-19T04:51:42;16.65;;;13.60;;
27939;SDS011;15275;51.716;14.324;2022-08-19T04:54:12;13.73;;;12.40;;
27939;SDS011;15275;51.716;14.324;2022-08-19T04:56:40;16.55;;;13.30;;
27939;SDS011;15275;51.716;14.324;2022-08-19T04:59:06;15.90;;;12.63;;
27939;SDS011;15275;51.716;14.324;2022-08-19T05:01:33;14.55;;;13.05;;
27939;SDS011;15275;51.716;14.324;2022-08-19T05:04:02;17.60;;;12.82;;
27939;SDS011;15275;51.716;14.324;2022-08-19T05:06:31;13.57;;;12.07;;
27939;SDS011;15275;51.716;14.324;2022-08-19T05:09:07;15.75;;;13.93;;
27939;SDS011;15275;51.716;14.324;2022-08-19T05:11:34;13.98;;;12.50;;
27939;SDS011;15275;51.716;14.324;2022-08-19T05:14:08;14.55;;;12.48;;
27939;SDS011;15275;51.716;14.324;2022-08-19T05:16:37;14.15;;;12.75;;
27939;SDS011;15275;51.716;14.324;2022-08-19T05:19:04;17.65;;;13.07;;
27939;SDS011;15275;51.716;14.324;2022-08-19T05:21:48;15.23;;;13.85;;
27939;SDS011;15275;51.716;14.324;2022-08-19T05:24:33;15.45;;;13.52;;
27939;SDS011;15275;51.716;14.324;2022-08-19T05:26:59;17.60;;;13.73;;
27939;SDS011;15275;51.716;14.324;2022-08-19T05:29:27;14.52;;;12.80;;
27939;SDS011;15275;51.716;14.324;2022-08-19T05:31:54;15.75;;;13.43;;
27939;SDS011;15275;51.716;14.324;2022-08-19T05:34:21;16.83;;;15.07;;
27939;SDS011;15275;51.716;14.324;2022-08-19T05:36:51;15.63;;;13.68;;
27939;SDS011;15275;51.716;14.324;2022-08-19T05:39:22;16.15;;;14.45;;
27939;SDS011;15275;51.716;14.324;2022-08-19T05:41:53;15.35;;;13.48;;
27939;SDS011;15275;51.716;14.324;2022-08-19T05:44:27;15.75;;;14.10;;
27939;SDS011;15275;51.716;14.324;2022-08-19T05:46:56;15.93;;;14.30;;
27939;SDS011;15275;51.716;14.324;2022-08-19T05:49:24;16.83;;;14.18;;
27939;SDS011;15275;51.716;14.324;2022-08-19T05:51:52;16.73;;;14.95;;
27939;SDS011;15275;51.716;14.324;2022-08-19T05:54:20;15.18;;;13.63;;
27939;SDS011;15275;51.716;14.324;2022-08-19T05:56:48;13.65;;;12.25;;
27939;SDS011;15275;51.716;14.324;2022-08-19T05:59:17;17.23;;;15.40;;
27939;SDS011;15275;51.716;14.324;2022-08-19T06:01:46;19.33;;;16.27;;
27939;SDS011;15275;51.716;14.324;2022-08-19T06:04:17;16.83;;;15.02;;
27939;SDS011;15275;51.716;14.324;2022-08-19T06:06:45;17.42;;;14.43;;
27939;SDS011;15275;51.716;14.324;2022-08-19T06:09:16;18.52;;;15.85;;
27939;SDS011;15275;51.716;14.324;2022-08-19T06:11:45;19.25;;;15.30;;
27939;SDS011;15275;51.716;14.324;2022-08-19T06:14:16;18.65;;;15.18;;
27939;SDS011;15275;51.716;14.324;2022-08-19T06:16:46;16.55;;;14.85;;
27939;SDS011;15275;51.716;14.324;2022-08-19T06:19:13;18.25;;;15.43;;
27939;SDS011;15275;51.716;14.324;2022-08-19T06:21:43;18.30;;;15.32;;
27939;SDS011;15275;51.716;14.324;2022-08-19T06:24:12;17.23;;;14.73;;
27939;SDS011;15275;51.716;14.324;2022-08-19T06:26:42;16.45;;;14.85;;
27939;SDS011;15275;51.716;14.324;2022-08-19T06:29:13;17.15;;;14.90;;
27939;SDS011;15275;51.716;14.324;2022-08-19T06:31:44;16.85;;;15.15;;
27939;SDS011;15275;51.716;14.324;2022-08-19T06:34:14;19.63;;;16.98;;
27939;SDS011;15275;51.716;14.324;2022-08-19T06:36:42;21.73;;;16.98;;
27939;SDS011;15275;51.716;14.324;2022-08-19T06:39:13;16.77;;;15.02;;
27939;SDS011;15275;51.716;14.324;2022-08-19T06:41:45;18.17;;;16.42;;
27939;SDS011;15275;51.716;14.324;2022-08-19T06:44:13;19.02;;;16.25;;
27939;SDS011;15275;51.716;14.324;2022-08-19T06:46:40;16.98;;;14.60;;
27939;SDS011;15275;51.716;14.324;2022-08-19T06:49:07;20.90;;;17.20;;
27939;SDS011;15275;51.716;14.324;2022-08-19T06:51:39;18.02;;;16.02;;
27939;SDS011;15275;51.716;14.324;2022-08-19T06:54:12;17.23;;;15.40;;
27939;SDS011;15275;51.716;14.324;2022-08-19T06:56:39;18.35;;;16.48;;
27939;SDS011;15275;51.716;14.324;2022-08-19T06:59:09;18.63;;;16.60;;
27939;SDS011;15275;51.716;14.324;2022-08-19T07:01:41;18.23;;;16.10;;
27939;SDS011;15275;51.716;14.324;2022-08-19T07:04:12;17.85;;;16.05;;
27939;SDS011;15275;51.716;14.324;2022-08-19T07:06:43;16.75;;;15.05;;
27939;SDS011;15275;51.716;14.324;2022-08-19T07:09:10;18.75;;;16.75;;
27939;SDS011;15275;51.716;14.324;2022-08-19T07:11:44;17.27;;;14.75;;
27939;SDS011;15275;51.716;14.324;2022-08-19T07:14:12;19.48;;;17.58;;
27939;SDS011;15275;51.716;14.324;2022-08-19T07:16:43;19.08;;;17.02;;
27939;SDS011;15275;51.716;14.324;2022-08-19T07:19:10;18.63;;;16.67;;
27939;SDS011;15275;51.716;14.324;2022-08-19T07:21:37;22.48;;;17.58;;
27939;SDS011;15275;51.716;14.324;2022-08-19T07:24:03;18.45;;;16.48;;
27939;SDS011;15275;51.716;14.324;2022-08-19T07:26:31;19.08;;;16.52;;
27939;SDS011;15275;51.716;14.324;2022-08-19T07:29:04;16.92;;;15.18;;
27939;SDS011;15275;51.716;14.324;2022-08-19T07:31:31;19.98;;;15.40;;
27939;SDS011;15275;51.716;14.324;2022-08-19T07:34:01;15.68;;;13.98;;
27939;SDS011;15275;51.716;14.324;2022-08-19T07:36:32;16.00;;;14.40;;
27939;SDS011;15275;51.716;14.324;2022-08-19T07:39:03;16.92;;;15.15;;
27939;SDS011;15275;51.716;14.324;2022-08-19T07:41:34;18.83;;;16.52;;
27939;SDS011;15275;51.716;14.324;2022-08-19T07:44:03;17.42;;;15.70;;
27939;SDS011;15275;51.716;14.324;2022-08-19T07:46:31;17.75;;;15.95;;
27939;SDS011;15275;51.716;14.324;2022-08-19T07:48:58;22.08;;;17.52;;
27939;SDS011;15275;51.716;14.324;2022-08-19T07:51:25;17.67;;;15.40;;
27939;SDS011;15275;51.716;14.324;2022-08-19T07:53:52;19.05;;;16.15;;
27939;SDS011;15275;51.716;14.324;2022-08-19T07:56:19;15.93;;;14.32;;
27939;SDS011;15275;51.716;14.324;2022-08-19T07:58:47;22.00;;;16.75;;
27939;SDS011;15275;51.716;14.324;2022-08-19T08:01:20;19.33;;;17.17;;
27939;SDS011;15275;51.716;14.324;2022-08-19T08:03:51;22.13;;;18.20;;
27939;SDS011;15275;51.716;14.324;2022-08-19T08:06:37;17.58;;;15.80;;
27939;SDS011;15275;51.716;14.324;2022-08-19T08:09:23;16.13;;;14.55;;
27939;SDS011;15275;51.716;14.324;2022-08-19T08:12:04;17.27;;;15.43;;
27939;SDS011;15275;51.716;14.324;2022-08-19T08:14:47;21.38;;;15.85;;
27939;SDS011;15275;51.716;14.324;2022-08-19T08:17:17;17.10;;;15.40;;
27939;SDS011;15275;51.716;14.324;2022-08-19T08:19:45;18.33;;;16.48;;
27939;SDS011;15275;51.716;14.324;2022-08-19T08:22:15;18.25;;;16.52;;
27939;SDS011;15275;51.716;14.324;2022-08-19T08:25:04;18.33;;;16.42;;
27939;SDS011;15275;51.716;14.324;2022-08-19T08:27:36;21.65;;;17.50;;
27939;SDS011;15275;51.716;14.324;2022-08-19T08:30:10;19.25;;;17.30;;
27939;SDS011;15275;51.716;14.324;2022-08-19T08:32:45;21.27;;;18.23;;
27939;SDS011;15275;51.716;14.324;2022-08-19T08:35:12;19.30;;;17.02;;
27939;SDS011;15275;51.716;14.324;2022-08-19T08:37:42;17.75;;;15.90;;
27939;SDS011;15275;51.716;14.324;2022-08-19T08:40:13;17.10;;;15.35;;
27939;SDS011;15275;51.716;14.324;2022-08-19T08:43:06;20.10;;;16.02;;
27939;SDS011;15275;51.716;14.324;2022-08-19T08:45:52;16.13;;;14.55;;
27939;SDS011;15275;51.716;14.324;2022-08-19T08:51:13;16.08;;;14.48;;
27939;SDS011;15275;51.716;14.324;2022-08-19T08:53:46;17.23;;;15.02;;
27939;SDS011;15275;51.716;14.324;2022-08-19T08:56:16;19.98;;;16.65;;
27939;SDS011;15275;51.716;14.324;2022-08-19T08:58:54;18.83;;;16.92;;
27939;SDS011;15275;51.716;14.324;2022-08-19T09:01:25;26.92;;;16.48;;
27939;SDS011;15275;51.716;14.324;2022-08-19T09:03:52;19.05;;;16.23;;
27939;SDS011;15275;51.716;14.324;2022-08-19T09:06:27;22.30;;;17.17;;
27939;SDS011;15275;51.716;14.324;2022-08-19T09:09:16;21.30;;;18.52;;
27939;SDS011;15275;51.716;14.324;2022-08-19T09:17:16;21.30;;;19.05;;
27939;SDS011;15275;51.716;14.324;2022-08-19T09:22:48;22.83;;;19.42;;
27939;SDS011;15275;51.716;14.324;2022-08-19T09:25:16;21.13;;;18.98;;
27939;SDS011;15275;51.716;14.324;2022-08-19T09:27:47;21.10;;;18.90;;
27939;SDS011;15275;51.716;14.324;2022-08-19T09:30:26;22.50;;;18.33;;
27939;SDS011;15275;51.716;14.324;2022-08-19T09:32:55;18.90;;;16.90;;
27939;SDS011;15275;51.716;14.324;2022-08-19T09:35:22;19.58;;;17.60;;
27939;SDS011;15275;51.716;14.324;2022-08-19T09:37:51;18.17;;;16.33;;
27939;SDS011;15275;51.716;14.324;2022-08-19T09:40:18;19.73;;;17.77;;
27939;SDS011;15275;51.716;14.324;2022-08-19T09:42:45;20.75;;;18.00;;
27939;SDS011;15275;51.716;14.324;2022-08-19T09:45:14;18.90;;;16.95;;
27939;SDS011;15275;51.716;14.324;2022-08-19T09:47:45;22.52;;;17.52;;
27939;SDS011;15275;51.716;14.324;2022-08-19T09:50:11;18.08;;;16.38;;
27939;SDS011;15275;51.716;14.324;2022-08-19T09:52:38;19.08;;;17.13;;
27939;SDS011;15275;51.716;14.324;2022-08-19T09:55:04;19.63;;;17.67;;
27939;SDS011;15275;51.716;14.324;2022-08-19T09:57:32;26.02;;;20.60;;
27939;SDS011;15275;51.716;14.324;2022-08-19T09:59:59;20.80;;;18.55;;
27939;SDS011;15275;51.716;14.324;2022-08-19T10:02:25;20.58;;;18.50;;
27939;SDS011;15275;51.716;14.324;2022-08-19T10:04:51;20.83;;;18.83;;
27939;SDS011;15275;51.716;14.324;2022-08-19T10:07:36;21.08;;;17.98;;
27939;SDS011;15275;51.716;14.324;2022-08-19T10:10:03;21.23;;;19.10;;
27939;SDS011;15275;51.716;14.324;2022-08-19T10:12:31;20.52;;;18.40;;
27939;SDS011;15275;51.716;14.324;2022-08-19T10:14:59;20.75;;;18.05;;
27939;SDS011;15275;51.716;14.324;2022-08-19T10:17:25;18.15;;;16.35;;
27939;SDS011;15275;51.716;14.324;2022-08-19T10:19:51;19.42;;;17.42;;
27939;SDS011;15275;51.716;14.324;2022-08-19T10:22:17;20.00;;;18.00;;
27939;SDS011;15275;51.716;14.324;2022-08-19T10:24:45;21.05;;;18.30;;
27939;SDS011;15275;51.716;14.324;2022-08-19T10:27:12;20.17;;;18.10;;
27939;SDS011;15275;51.716;14.324;2022-08-19T10:29:39;20.27;;;18.17;;
27939;SDS011;15275;51.716;14.324;2022-08-19T10:32:07;19.30;;;17.27;;
27939;SDS011;15275;51.716;14.324;2022-08-19T10:34:34;19.45;;;17.63;;
27939;SDS011;15275;51.716;14.324;2022-08-19T10:37:02;19.67;;;17.70;;
27939;SDS011;15275;51.716;14.324;2022-08-19T10:39:34;18.73;;;16.95;;
27939;SDS011;15275;51.716;14.324;2022-08-19T10:42:07;18.67;;;16.88;;
27939;SDS011;15275;51.716;14.324;2022-08-19T10:44:35;21.33;;;17.55;;
27939;SDS011;15275;51.716;14.324;2022-08-19T10:47:02;20.73;;;18.70;;
27939;SDS011;15275;51.716;14.324;2022-08-19T10:49:29;19.83;;;17.83;;
27939;SDS011;15275;51.716;14.324;2022-08-19T11:47:32;22.25;;;19.55;;
27939;SDS011;15275;51.716;14.324;2022-08-19T11:49:58;20.85;;;18.77;;
27939;SDS011;15275;51.716;14.324;2022-08-19T11:52:24;21.85;;;19.65;;
27939;SDS011;15275;51.716;14.324;2022-08-19T11:54:50;22.60;;;20.50;;
27939;SDS011;15275;51.716;14.324;2022-08-19T11:57:16;21.40;;;19.13;;
27939;SDS011;15275;51.716;14.324;2022-08-19T11:59:47;22.35;;;20.10;;
27939;SDS011;15275;51.716;14.324;2022-08-19T12:02:14;23.52;;;21.23;;
27939;SDS011;15275;51.716;14.324;2022-08-19T12:17:30;19.80;;;17.90;;
27939;SDS011;15275;51.716;14.324;2022-08-19T12:19:56;20.50;;;18.38;;
27939;SDS011;15275;51.716;14.324;2022-08-19T12:22:22;19.15;;;17.20;;
27939;SDS011;15275;51.716;14.324;2022-08-19T12:24:48;20.30;;;17.90;;
27939;SDS011;15275;51.716;14.324;2022-08-19T12:27:15;19.02;;;17.23;;
27939;SDS011;15275;51.716;14.324;2022-08-19T12:29:42;20.05;;;17.42;;
27939;SDS011;15275;51.716;14.324;2022-08-19T12:32:08;17.65;;;15.77;;
27939;SDS011;15275;51.716;14.324;2022-08-19T12:34:34;17.58;;;15.90;;
27939;SDS011;15275;51.716;14.324;2022-08-19T12:37:02;19.27;;;17.30;;
27939;SDS011;15275;51.716;14.324;2022-08-19T12:39:40;18.13;;;16.50;;
27939;SDS011;15275;51.716;14.324;2022-08-19T12:42:07;20.98;;;17.30;;
27939;SDS011;15275;51.716;14.324;2022-08-19T12:44:36;18.58;;;16.70;;
27939;SDS011;15275;51.716;14.324;2022-08-19T12:47:04;19.23;;;17.10;;
27939;SDS011;15275;51.716;14.324;2022-08-19T12:49:31;18.58;;;16.58;;
27939;SDS011;15275;51.716;14.324;2022-08-19T12:52:02;19.75;;;17.70;;
27939;SDS011;15275;51.716;14.324;2022-08-19T12:54:33;19.98;;;17.98;;
27939;SDS011;15275;51.716;14.324;2022-08-19T12:57:00;23.42;;;19.60;;
27939;SDS011;15275;51.716;14.324;2022-08-19T12:59:32;20.10;;;18.10;;
27939;SDS011;15275;51.716;14.324;2022-08-19T13:02:02;21.30;;;19.30;;
27939;SDS011;15275;51.716;14.324;2022-08-19T13:04:31;20.20;;;18.10;;
27939;SDS011;15275;51.716;14.324;2022-08-19T13:07:00;20.85;;;18.58;;
27939;SDS011;15275;51.716;14.324;2022-08-19T13:09:27;22.15;;;19.85;;
27939;SDS011;15275;51.716;14.324;2022-08-19T13:11:53;23.38;;;21.08;;
27939;SDS011;15275;51.716;14.324;2022-08-19T13:14:19;23.83;;;21.38;;
27939;SDS011;15275;51.716;14.324;2022-08-19T13:16:45;24.73;;;21.73;;
27939;SDS011;15275;51.716;14.324;2022-08-19T13:19:11;25.80;;;23.02;;
27939;SDS011;15275;51.716;14.324;2022-08-19T13:21:38;25.50;;;22.88;;
27939;SDS011;15275;51.716;14.324;2022-08-19T13:24:04;31.05;;;24.98;;
27939;SDS011;15275;51.716;14.324;2022-08-19T13:26:30;27.85;;;24.88;;
27939;SDS011;15275;51.716;14.324;2022-08-19T13:28:56;27.00;;;24.40;;
27939;SDS011;15275;51.716;14.324;2022-08-19T13:31:40;27.75;;;24.88;;
27939;SDS011;15275;51.716;14.324;2022-08-19T13:34:27;27.55;;;24.75;;
27939;SDS011;15275;51.716;14.324;2022-08-19T13:36:59;24.47;;;22.07;;
27939;SDS011;15275;51.716;14.324;2022-08-19T13:39:28;25.20;;;22.65;;
27939;SDS011;15275;51.716;14.324;2022-08-19T13:41:55;24.90;;;22.38;;
27939;SDS011;15275;51.716;14.324;2022-08-19T13:44:21;25.60;;;22.90;;
27939;SDS011;15275;51.716;14.324;2022-08-19T13:46:47;25.75;;;22.90;;
27939;SDS011;15275;51.716;14.324;2022-08-19T13:49:17;24.38;;;21.65;;
27939;SDS011;15275;51.716;14.324;2022-08-19T13:51:45;24.55;;;21.75;;
27939;SDS011;15275;51.716;14.324;2022-08-19T13:54:11;24.73;;;22.13;;
27939;SDS011;15275;51.716;14.324;2022-08-19T13:56:41;24.95;;;22.38;;
27939;SDS011;15275;51.716;14.324;2022-08-19T13:59:09;25.50;;;22.95;;
27939;SDS011;15275;51.716;14.324;2022-08-19T14:01:36;25.67;;;22.45;;
27939;SDS011;15275;51.716;14.324;2022-08-19T14:04:03;23.23;;;20.80;;
27939;SDS011;15275;51.716;14.324;2022-08-19T14:06:30;25.08;;;21.73;;
27939;SDS011;15275;51.716;14.324;2022-08-19T14:08:57;23.90;;;20.65;;
27939;SDS011;15275;51.716;14.324;2022-08-19T14:11:23;24.05;;;21.50;;
27939;SDS011;15275;51.716;14.324;2022-08-19T14:13:50;26.95;;;22.73;;
27939;SDS011;15275;51.716;14.324;2022-08-19T14:16:16;23.05;;;20.65;;
27939;SDS011;15275;51.716;14.324;2022-08-19T14:18:42;25.65;;;21.75;;
27939;SDS011;15275;51.716;14.324;2022-08-19T14:21:13;26.70;;;22.58;;
27939;SDS011;15275;51.716;14.324;2022-08-19T14:23:43;31.48;;;23.75;;
27939;SDS011;15275;51.716;14.324;2022-08-19T14:26:11;24.98;;;22.27;;
27939;SDS011;15275;51.716;14.324;2022-08-19T14:28:41;26.17;;;23.38;;
27939;SDS011;15275;51.716;14.324;2022-08-19T14:31:12;29.50;;;22.17;;
27939;SDS011;15275;51.716;14.324;2022-08-19T14:33:43;24.10;;;21.52;;
27939;SDS011;15275;51.716;14.324;2022-08-19T14:36:10;29.77;;;24.67;;
27939;SDS011;15275;51.716;14.324;2022-08-19T14:38:36;27.73;;;22.45;;
27939;SDS011;15275;51.716;14.324;2022-08-19T14:41:09;30.48;;;24.02;;
27939;SDS011;15275;51.716;14.324;2022-08-19T14:43:45;27.42;;;22.02;;
27939;SDS011;15275;51.716;14.324;2022-08-19T14:46:14;24.98;;;22.23;;
27939;SDS011;15275;51.716;14.324;2022-08-19T14:48:42;22.52;;;19.10;;
27939;SDS011;15275;51.716;14.324;2022-08-19T14:51:08;26.38;;;22.38;;
27939;SDS011;15275;51.716;14.324;2022-08-19T14:53:34;26.63;;;22.02;;
27939;SDS011;15275;51.716;14.324;2022-08-19T14:56:00;27.65;;;23.58;;
27939;SDS011;15275;51.716;14.324;2022-08-19T14:58:27;31.73;;;24.20;;
27939;SDS011;15275;51.716;14.324;2022-08-19T15:00:53;33.17;;;26.27;;
27939;SDS011;15275;51.716;14.324;2022-08-19T15:03:19;32.75;;;26.63;;
27939;SDS011;15275;51.716;14.324;2022-08-19T15:05:45;32.53;;;25.42;;
27939;SDS011;15275;51.716;14.324;2022-08-19T15:08:11;32.10;;;23.88;;
27939;SDS011;15275;51.716;14.324;2022-08-19T15:10:39;31.08;;;23.77;;
27939;SDS011;15275;51.716;14.324;2022-08-19T15:13:05;30.25;;;24.30;;
27939;SDS011;15275;51.716;14.324;2022-08-19T15:15:32;29.13;;;21.83;;
27939;SDS011;15275;51.716;14.324;2022-08-19T15:17:58;27.52;;;22.65;;
27939;SDS011;15275;51.716;14.324;2022-08-19T15:20:27;29.38;;;24.58;;
27939;SDS011;15275;51.716;14.324;2022-08-19T15:22:54;27.77;;;23.70;;
27939;SDS011;15275;51.716;14.324;2022-08-19T15:25:20;29.38;;;23.13;;
27939;SDS011;15275;51.716;14.324;2022-08-19T15:27:46;24.83;;;21.40;;
27939;SDS011;15275;51.716;14.324;2022-08-19T15:30:17;27.08;;;22.00;;
27939;SDS011;15275;51.716;14.324;2022-08-19T15:32:47;28.38;;;21.35;;
27939;SDS011;15275;51.716;14.324;2022-08-19T15:35:13;27.63;;;21.70;;
27939;SDS011;15275;51.716;14.324;2022-08-19T15:37:39;28.48;;;21.60;;
27939;SDS011;15275;51.716;14.324;2022-08-19T15:40:06;25.17;;;20.40;;